Time;durP1;ratioP1;P1;durP2;ratioP2;P2;SDS_P1;SDS_P2;PMS_P1;PMS_P2;Temp;Humidity;BMP_temperature;BMP_pressure;BME280_temperature;BME280_humidity;BME280_pressure;Samples;Min_cycle;Max_cycle;Signal;HPM_P1;HPM_P2
2023/01/24 00:00:05;;;;;;;7.23;3.97;;;;;;;10.14;70.62;95537.84;5070267;28;20744;-47
2023/01/24 00:02:32;;;;;;;4.77;3.73;;;;;;;10.14;70.78;95537.84;5069985;28;20197;-47
2023/01/24 00:04:59;;;;;;;4.37;3.97;;;;;;;10.05;70.68;95529.13;5070086;28;20190;-47
2023/01/24 00:07:26;;;;;;;5.87;3.87;;;;;;;10.12;70.76;95528.69;5069893;28;20210;-46
2023/01/24 00:09:52;;;;;;;4.00;3.60;;;;;;;10.16;70.67;95535.19;5069527;28;20232;-46
2023/01/24 00:12:21;;;;;;;5.07;4.17;;;;;;;10.16;70.69;95530.09;5069903;28;20198;-46
2023/01/24 00:14:47;;;;;;;4.27;3.87;;;;;;;10.14;70.88;95540.41;5069760;28;20240;-47
2023/01/24 00:17:14;;;;;;;3.90;3.27;;;;;;;10.14;70.87;95544.69;5070259;28;20205;-45
2023/01/24 00:19:41;;;;;;;4.47;3.70;;;;;;;10.13;71.04;95537.97;5069621;28;20183;-46
2023/01/24 00:22:08;;;;;;;4.03;3.60;;;;;;;10.10;70.85;95540.75;5069976;28;20186;-46
2023/01/24 00:24:35;;;;;;;4.17;3.77;;;;;;;10.13;70.84;95543.09;5069939;28;20186;-47
2023/01/24 00:27:02;;;;;;;6.27;3.93;;;;;;;10.12;70.77;95552.50;5069772;28;20248;-47
2023/01/24 00:29:30;;;;;;;4.93;4.43;;;;;;;10.12;70.76;95537.16;5069431;28;20543;-47
2023/01/24 00:31:57;;;;;;;4.03;3.63;;;;;;;10.12;70.82;95552.50;5069661;28;20190;-47
2023/01/24 00:34:23;;;;;;;3.90;3.50;;;;;;;10.12;70.75;95549.13;5069362;28;20179;-47
2023/01/24 00:36:50;;;;;;;4.43;4.03;;;;;;;10.11;70.90;95550.06;5069955;28;20182;-46
2023/01/24 00:39:17;;;;;;;4.23;3.30;;;;;;;10.12;70.84;95552.50;5069473;28;20190;-47
2023/01/24 00:41:44;;;;;;;4.83;3.80;;;;;;;10.13;70.53;95553.31;5069736;28;20209;-47
2023/01/24 00:44:11;;;;;;;4.33;3.93;;;;;;;10.13;70.67;95554.13;5069079;28;20239;-45
2023/01/24 00:46:39;;;;;;;4.73;4.00;;;;;;;10.14;70.54;95550.63;5069314;28;20187;-48
2023/01/24 00:49:06;;;;;;;5.07;4.07;;;;;;;10.14;70.49;95554.94;5069111;28;20561;-48
2023/01/24 00:51:33;;;;;;;4.27;3.67;;;;;;;10.15;70.41;95549.72;5069357;28;20182;-46
2023/01/24 00:54:00;;;;;;;3.40;3.10;;;;;;;10.16;70.55;95550.53;5069438;28;20236;-47
2023/01/24 00:56:27;;;;;;;3.87;3.47;;;;;;;10.16;70.44;95548.78;5069059;28;20190;-49
2023/01/24 00:58:53;;;;;;;4.87;3.90;;;;;;;10.16;70.48;95560.75;5069303;28;20244;-47
2023/01/24 01:01:21;;;;;;;4.73;3.53;;;;;;;10.09;70.43;95544.22;5068714;28;20222;-46
2023/01/24 01:03:49;;;;;;;4.93;4.00;;;;;;;10.13;70.38;95554.13;5089487;28;20650;-47
2023/01/24 01:06:17;;;;;;;4.20;3.80;;;;;;;10.12;70.63;95560.16;5089407;28;20187;-47
2023/01/24 01:08:43;;;;;;;3.60;3.30;;;;;;;10.12;70.52;95560.16;5089464;28;20221;-48
2023/01/24 01:11:11;;;;;;;5.27;4.13;;;;;;;10.11;70.46;95558.53;5081169;28;20273;-46
2023/01/24 01:13:38;;;;;;;4.60;3.80;;;;;;;10.11;70.46;95553.44;5068625;28;20285;-48
2023/01/24 01:16:07;;;;;;;4.63;3.73;;;;;;;10.11;70.52;95550.06;5048995;28;20623;-48
2023/01/24 01:18:35;;;;;;;4.73;4.17;;;;;;;9.95;70.48;95535.84;5049367;28;20183;-47
2023/01/24 01:21:03;;;;;;;5.90;3.67;;;;;;;10.10;70.42;95556.09;5049389;28;20272;-46
2023/01/24 01:23:30;;;;;;;5.53;4.63;;;;;;;10.09;70.44;95560.38;5068867;28;20635;-47
2023/01/24 01:26:01;;;;;;;5.67;4.00;;;;;;;10.07;70.40;95569.91;5068762;28;20538;-48
2023/01/24 01:28:27;;;;;;;4.77;3.67;;;;;;;10.09;70.40;95567.25;5068928;28;20226;-47
2023/01/24 01:30:55;;;;;;;4.77;4.27;;;;;;;10.07;70.45;95567.38;5069308;28;20316;-48
2023/01/24 01:33:22;;;;;;;5.00;3.90;;;;;;;10.05;70.39;95556.41;5068519;28;20182;-46
2023/01/24 01:35:50;;;;;;;4.27;3.87;;;;;;;9.91;70.53;95533.63;5069405;28;20186;-49
2023/01/24 01:38:19;;;;;;;4.30;3.90;;;;;;;10.05;70.42;95558.97;5068572;28;20190;-46
2023/01/24 01:40:46;;;;;;;5.70;4.13;;;;;;;10.04;70.18;95557.34;5068891;28;20194;-52
2023/01/24 01:43:15;;;;;;;4.80;4.10;;;;;;;10.04;70.38;95562.47;5074315;28;20185;-46
2023/01/24 01:45:43;;;;;;;5.67;4.53;;;;;;;10.03;70.36;95555.72;5071760;28;20194;-46
2023/01/24 01:48:22;;;;;;;4.23;3.70;;;;;;;9.89;70.06;95530.41;5068741;28;20229;-45
2023/01/24 01:50:58;;;;;;;5.00;4.50;;;;;;;10.04;70.18;95558.16;5069180;28;20190;-46
2023/01/24 01:53:31;;;;;;;5.87;4.07;;;;;;;10.03;70.13;95571.06;5068365;28;20202;-48
2023/01/24 01:56:02;;;;;;;4.50;4.10;;;;;;;10.02;70.16;95559.22;5068794;28;20592;-46
2023/01/24 01:58:29;;;;;;;6.43;4.50;;;;;;;10.03;70.11;95569.31;5068547;28;20667;-48
2023/01/24 02:00:56;;;;;;;5.70;4.50;;;;;;;10.04;70.03;95560.72;5068564;28;20707;-48
2023/01/24 02:03:41;;;;;;;4.87;4.17;;;;;;;10.03;70.19;95569.31;5068590;28;20201;-47
2023/01/24 02:06:16;;;;;;;5.17;4.53;;;;;;;9.94;70.16;95552.13;5067502;28;20183;-46
2023/01/24 02:08:45;;;;;;;5.57;4.40;;;;;;;10.01;70.08;95563.50;5068548;28;20626;-46
2023/01/24 02:16:41;;;;;;;5.27;4.37;;;;;;;9.97;70.15;95544.22;5045317;28;20568;-46
2023/01/24 02:19:23;;;;;;;5.23;4.03;;;;;;;9.97;70.01;95544.22;5046157;28;20691;-47
2023/01/24 02:21:57;;;;;;;5.27;4.00;;;;;;;9.97;69.94;95554.47;5046044;28;20573;-47
2023/01/24 02:24:31;;;;;;;5.83;4.73;;;;;;;9.97;69.95;95546.78;5046275;28;20203;-47
2023/01/24 02:26:59;;;;;;;5.70;4.30;;;;;;;9.96;69.85;95542.59;5045823;28;20627;-47
2023/01/24 02:29:26;;;;;;;6.53;5.00;;;;;;;9.97;69.74;95545.94;5046098;28;20292;-46
2023/01/24 02:31:55;;;;;;;6.73;4.80;;;;;;;9.83;69.99;95523.16;5046798;28;20186;-47
2023/01/24 02:34:22;;;;;;;6.23;4.50;;;;;;;9.97;69.87;95544.22;5049850;28;20221;-46
2023/01/24 02:36:52;;;;;;;5.20;4.67;;;;;;;9.93;70.05;95542.81;5049437;28;20194;-46
2023/01/24 02:39:24;;;;;;;6.20;4.57;;;;;;;9.95;69.89;95545.25;5049864;28;20198;-48
2023/01/24 02:41:54;;;;;;;5.33;4.23;;;;;;;9.95;69.81;95550.38;5049362;28;20233;-46
2023/01/24 02:44:29;;;;;;;5.33;4.67;;;;;;;9.95;69.92;95563.16;5049189;28;20194;-47
2023/01/24 02:46:56;;;;;;;4.83;4.23;;;;;;;9.93;69.82;95558.16;5049069;28;20197;-47
2023/01/24 02:49:22;;;;;;;5.80;4.40;;;;;;;9.93;69.88;95550.50;5049571;28;20735;-46
2023/01/24 02:54:33;;;;;;;4.57;4.03;;;;;;;9.91;70.00;95554.06;5065538;28;20315;-46
2023/01/24 02:59:46;;;;;;;4.20;3.80;;;;;;;9.88;70.00;95552.53;5064718;28;20247;-47
2023/01/24 03:02:12;;;;;;;4.40;3.90;;;;;;;9.88;70.05;95544.06;5073226;28;20696;-48
2023/01/24 03:04:39;;;;;;;5.17;4.17;;;;;;;9.79;69.90;95537.91;5075021;28;20202;-46
2023/01/24 03:07:06;;;;;;;5.07;3.90;;;;;;;9.86;69.88;95536.53;5075684;28;20198;-49
2023/01/24 03:09:38;;;;;;;4.30;3.90;;;;;;;9.86;69.76;95539.09;5072064;28;20237;-48
2023/01/24 03:36:51;;;;;;;3.83;3.17;;;;;;;9.72;69.95;95542.66;5070879;28;20512;-47
2023/01/24 03:42:02;;;;;;;3.70;3.20;;;;;;;9.66;69.86;95529.50;5071034;28;20210;-45
2023/01/24 03:44:29;;;;;;;3.87;3.43;;;;;;;9.70;69.89;95541.13;5070083;28;20198;-47
2023/01/24 03:46:57;;;;;;;4.10;3.70;;;;;;;9.70;69.91;95538.56;5072525;28;20224;-46
2023/01/24 03:52:26;;;;;;;4.20;3.70;;;;;;;9.66;70.01;95532.06;5070879;28;20190;-46
2023/01/24 03:54:53;;;;;;;4.93;3.67;;;;;;;9.66;69.91;95537.97;5070308;28;20202;-47
2023/01/24 03:57:20;;;;;;;4.10;3.70;;;;;;;9.62;69.78;95534.00;5070573;28;20191;-47
2023/01/24 03:59:47;;;;;;;3.87;3.47;;;;;;;9.64;69.82;95539.84;5070350;28;20194;-46
2023/01/24 04:02:15;;;;;;;3.87;2.73;;;;;;;9.63;69.76;95528.00;5070081;28;20734;-44
2023/01/24 04:07:26;;;;;;;3.80;3.50;;;;;;;9.62;69.92;95531.47;5070575;28;20304;-47
2023/01/24 04:09:53;;;;;;;3.13;2.93;;;;;;;9.58;69.70;95516.47;5070317;28;20226;-45
2023/01/24 04:12:20;;;;;;;4.63;3.63;;;;;;;9.60;69.78;95523.09;5070697;28;20197;-47
2023/01/24 04:14:46;;;;;;;5.30;3.60;;;;;;;9.60;69.84;95518.00;5070382;28;20201;-48
2023/01/24 04:17:15;;;;;;;5.67;3.40;;;;;;;9.59;69.91;95524.03;5069712;28;20186;-47
2023/01/24 04:19:41;;;;;;;3.60;3.30;;;;;;;9.59;69.97;95521.47;5070174;28;20194;-46
2023/01/24 04:22:08;;;;;;;4.00;3.60;;;;;;;9.58;70.03;95519.84;5070186;28;20194;-47
2023/01/24 04:24:35;;;;;;;3.97;3.53;;;;;;;9.60;69.83;95529.97;5070204;28;20206;-47
2023/01/24 04:27:02;;;;;;;3.97;3.30;;;;;;;9.59;69.75;95525.78;5069670;28;20236;-46
2023/01/24 04:29:28;;;;;;;5.30;3.83;;;;;;;9.55;69.85;95522.63;5069759;28;20248;-46
2023/01/24 04:31:55;;;;;;;3.70;3.30;;;;;;;9.57;69.88;95522.50;5069958;28;20259;-46
2023/01/24 04:34:23;;;;;;;3.60;3.30;;;;;;;9.53;69.82;95514.25;5070095;28;20192;-46
2023/01/24 04:36:50;;;;;;;3.60;3.30;;;;;;;9.55;69.90;95525.19;5069174;28;20644;-45
2023/01/24 04:39:17;;;;;;;4.27;3.87;;;;;;;9.52;69.87;95521.09;5069748;28;20182;-47
2023/01/24 04:41:44;;;;;;;3.63;3.33;;;;;;;9.53;69.78;95529.56;5069654;28;20190;-48
2023/01/24 04:44:10;;;;;;;3.83;3.53;;;;;;;9.54;69.83;95536.28;5069707;28;20557;-46
2023/01/24 04:46:37;;;;;;;4.27;3.47;;;;;;;9.47;69.86;95528.28;5069479;28;20194;-46
2023/01/24 04:49:04;;;;;;;4.13;3.23;;;;;;;9.53;69.67;95532.94;5068460;28;20738;-46
2023/01/24 04:51:32;;;;;;;4.40;3.37;;;;;;;9.53;69.90;95538.03;5068892;28;20193;-47
2023/01/24 04:53:59;;;;;;;4.83;3.40;;;;;;;9.51;69.79;95534.78;5068890;28;20190;-49
2023/01/24 04:56:25;;;;;;;4.30;3.80;;;;;;;9.51;69.66;95534.78;5068883;28;20182;-47
2023/01/24 04:58:52;;;;;;;3.53;3.23;;;;;;;9.51;69.91;95539.09;5069068;28;20187;-48
2023/01/24 05:01:19;;;;;;;4.23;3.83;;;;;;;9.50;69.88;95548.50;5068841;28;20283;-46
2023/01/24 05:03:46;;;;;;;4.40;3.53;;;;;;;9.50;69.78;95548.50;5069096;28;20202;-47
2023/01/24 05:06:12;;;;;;;3.87;3.53;;;;;;;9.49;69.52;95544.28;5069574;28;20251;-47
2023/01/24 05:08:41;;;;;;;6.83;3.67;;;;;;;9.48;69.80;95546.97;5068454;28;20688;-48
2023/01/24 05:11:07;;;;;;;3.63;3.33;;;;;;;9.43;69.96;95543.94;5069007;28;20194;-47
2023/01/24 05:13:34;;;;;;;3.77;3.37;;;;;;;9.37;69.72;95537.53;5069482;28;20175;-48
2023/01/24 05:16:01;;;;;;;3.60;3.00;;;;;;;9.38;69.74;95546.81;5069278;28;20189;-47
2023/01/24 05:18:28;;;;;;;9.20;3.60;;;;;;;9.43;69.39;95565.16;5069308;28;20213;-46
2023/01/24 05:20:55;;;;;;;3.97;3.20;;;;;;;9.41;69.86;95561.09;5068454;28;20186;-46
2023/01/24 05:23:21;;;;;;;4.60;3.90;;;;;;;9.39;69.84;95568.84;5068968;28;20189;-46
2023/01/24 05:25:49;;;;;;;3.70;3.40;;;;;;;9.37;69.73;95575.81;5068343;28;20198;-47
2023/01/24 05:28:16;;;;;;;5.27;3.47;;;;;;;9.21;69.76;95562.50;5068353;28;20185;-47
2023/01/24 05:30:43;;;;;;;3.97;3.57;;;;;;;9.35;69.59;95587.88;5068871;28;20201;-47
2023/01/24 05:33:10;;;;;;;3.80;3.50;;;;;;;9.37;69.72;95603.91;5069347;28;20238;-47
2023/01/24 05:35:38;;;;;;;4.40;3.37;;;;;;;9.36;69.82;95596.34;5069226;28;20193;-47
2023/01/24 05:38:05;;;;;;;4.60;3.83;;;;;;;9.35;69.77;95592.97;5068686;28;20186;-48
2023/01/24 05:40:32;;;;;;;5.70;3.60;;;;;;;9.33;69.75;95597.38;5068137;28;20199;-46
2023/01/24 05:43:00;;;;;;;3.83;3.27;;;;;;;9.35;69.67;95600.63;5069065;28;20190;-47
2023/01/24 05:45:27;;;;;;;3.90;3.10;;;;;;;9.35;69.63;95600.63;5069091;28;20194;-47
2023/01/24 05:47:54;;;;;;;3.30;3.00;;;;;;;9.35;69.54;95604.94;5069215;28;20184;-46
2023/01/24 05:50:20;;;;;;;4.10;3.37;;;;;;;9.30;69.66;95600.13;5069345;28;20602;-47
2023/01/24 05:52:47;;;;;;;3.77;3.37;;;;;;;8.80;69.77;95515.97;5069822;28;20194;-47
2023/01/24 05:55:14;;;;;;;3.57;3.23;;;;;;;9.36;69.58;95604.81;5069664;28;20671;-48
2023/01/24 05:57:41;;;;;;;7.97;3.40;;;;;;;9.36;69.81;95609.91;5069075;28;20191;-46
2023/01/24 06:00:11;;;;;;;4.80;3.43;;;;;;;9.38;69.52;95620.03;5068362;28;20194;-46
2023/01/24 06:02:37;;;;;;;4.17;3.10;;;;;;;9.37;69.63;95608.16;5068908;28;20648;-46
2023/01/24 06:05:05;;;;;;;3.50;3.13;;;;;;;9.37;69.58;95614.13;5068963;28;20194;-47
2023/01/24 06:07:32;;;;;;;5.53;3.80;;;;;;;9.72;95.68;95609.06;5070689;28;20717;-46
2023/01/24 06:09:58;;;;;;;5.13;4.00;;;;;;;10.71;100.00;95620.59;5073084;28;20449;-46
2023/01/24 06:12:25;;;;;;;4.93;4.23;;;;;;;11.34;100.00;95616.59;5072996;28;20189;-47
2023/01/24 06:14:52;;;;;;;5.97;3.67;;;;;;;11.49;99.35;95615.41;5072740;28;20574;-46
2023/01/24 06:17:20;;;;;;;3.47;3.03;;;;;;;11.44;90.04;95626.91;5071873;28;20196;-47
2023/01/24 06:19:48;;;;;;;4.13;3.23;;;;;;;11.33;85.27;95625.22;5072792;28;20214;-48
2023/01/24 06:22:20;;;;;;;6.83;3.43;;;;;;;11.20;83.19;95627.09;5072221;28;20681;-46
2023/01/24 06:24:47;;;;;;;4.50;2.97;;;;;;;11.10;82.36;95637.22;5072286;28;20668;-46
2023/01/24 06:27:14;;;;;;;5.70;3.53;;;;;;;10.97;81.46;95639.09;5066024;28;20186;-45
2023/01/24 06:29:42;;;;;;;7.50;3.70;;;;;;;10.86;80.76;95649.31;5071634;28;20217;-46
2023/01/24 06:32:21;;;;;;;3.30;3.00;;;;;;;10.74;80.22;95648.50;5070789;28;20595;-47
2023/01/24 06:35:15;;;;;;;6.00;4.03;;;;;;;10.63;80.00;95651.06;5072914;28;20186;-46
2023/01/24 06:37:46;;;;;;;5.47;3.50;;;;;;;10.53;79.83;95658.56;5072325;28;20194;-45
2023/01/24 06:40:16;;;;;;;3.67;3.30;;;;;;;10.45;79.67;95663.47;5071941;28;20197;-45
2023/01/24 06:42:43;;;;;;;3.47;3.17;;;;;;;10.34;79.53;95659.13;5071965;28;20183;-45
2023/01/24 06:45:11;;;;;;;4.20;3.80;;;;;;;10.28;79.44;95662.97;5071335;28;20183;-45
2023/01/24 06:47:39;;;;;;;3.27;2.97;;;;;;;10.17;79.39;95655.22;5071817;28;20244;-45
2023/01/24 06:50:07;;;;;;;4.50;3.50;;;;;;;9.90;78.97;95622.25;5072300;28;20248;-46
2023/01/24 06:52:36;;;;;;;4.03;3.63;;;;;;;10.05;78.93;95661.19;5071354;28;20191;-45
2023/01/24 06:55:03;;;;;;;4.67;3.73;;;;;;;10.02;78.89;95661.44;5079959;28;20184;-45
2023/01/24 06:57:29;;;;;;;4.90;3.93;;;;;;;9.93;78.54;95662.06;5076976;28;20198;-46
2023/01/24 06:59:56;;;;;;;4.40;3.60;;;;;;;9.87;78.57;95658.22;5071405;28;20667;-46
2023/01/24 07:02:23;;;;;;;4.23;3.13;;;;;;;9.86;78.51;95669.38;5071661;28;20200;-45
2023/01/24 07:04:50;;;;;;;5.27;3.77;;;;;;;9.82;78.54;95672.25;5072296;28;20190;-45
2023/01/24 07:07:17;;;;;;;4.97;4.07;;;;;;;9.76;77.65;95668.41;5072228;28;20253;-45
2023/01/24 07:09:45;;;;;;;4.20;3.77;;;;;;;9.72;77.66;95670.38;5071750;28;20584;-46
2023/01/24 07:12:12;;;;;;;4.40;3.50;;;;;;;9.68;77.49;95673.25;5071987;28;20220;-46
2023/01/24 07:14:39;;;;;;;4.93;4.17;;;;;;;9.52;77.33;95653.88;5071692;28;20213;-45
2023/01/24 07:17:06;;;;;;;4.23;3.67;;;;;;;9.64;76.98;95676.94;5071459;28;20193;-47
2023/01/24 07:19:34;;;;;;;3.57;3.23;;;;;;;9.63;76.67;95680.38;5071355;28;20248;-46
2023/01/24 07:22:01;;;;;;;4.20;3.40;;;;;;;9.58;76.63;95678.16;5072602;28;20194;-46
2023/01/24 07:24:30;;;;;;;3.90;3.30;;;;;;;9.58;76.06;95680.72;5071995;28;20187;-48
2023/01/24 07:26:59;;;;;;;5.40;3.43;;;;;;;9.54;75.94;95677.59;5072146;28;20280;-46
2023/01/24 07:29:25;;;;;;;6.40;3.97;;;;;;;9.53;75.82;95690.44;5071437;28;20218;-46
2023/01/24 07:31:53;;;;;;;4.60;4.17;;;;;;;9.49;75.69;95681.34;5070159;28;20205;-45
2023/01/24 07:34:20;;;;;;;3.90;3.40;;;;;;;9.52;75.50;95692.19;5051823;28;20191;-46
2023/01/24 07:36:48;;;;;;;4.27;3.60;;;;;;;9.51;75.21;95705.88;5052033;28;20627;-46
2023/01/24 07:39:16;;;;;;;7.07;4.03;;;;;;;9.35;75.15;95681.50;5051515;28;20191;-44
2023/01/24 07:41:43;;;;;;;4.20;3.80;;;;;;;9.41;75.15;95697.22;5051068;28;20194;-45
2023/01/24 07:44:12;;;;;;;4.87;4.00;;;;;;;9.43;74.78;95697.94;5050378;28;20205;-46
2023/01/24 07:46:39;;;;;;;4.40;4.00;;;;;;;9.41;74.96;95706.59;5050599;28;20194;-48
2023/01/24 07:49:05;;;;;;;4.03;3.67;;;;;;;9.40;74.66;95702.41;5050868;28;20210;-46
2023/01/24 07:51:32;;;;;;;3.53;3.23;;;;;;;9.41;74.69;95706.59;5050964;28;20296;-46
2023/01/24 07:53:59;;;;;;;4.40;3.93;;;;;;;9.42;74.32;95721.81;5062207;28;20190;-46
2023/01/24 07:56:26;;;;;;;4.00;3.57;;;;;;;9.43;74.19;95720.91;5070124;28;20178;-46
2023/01/24 07:58:52;;;;;;;4.60;4.13;;;;;;;9.44;74.18;95729.38;5070244;28;20568;-47
2023/01/24 08:01:23;;;;;;;4.97;4.30;;;;;;;9.46;74.13;95725.81;5069639;28;20218;-47
2023/01/24 08:03:50;;;;;;;6.00;4.53;;;;;;;9.45;73.99;95731.00;5070690;28;20202;-45
2023/01/24 08:06:17;;;;;;;4.60;4.20;;;;;;;9.19;73.86;95690.19;5070240;28;20545;-46
2023/01/24 08:08:44;;;;;;;3.73;3.40;;;;;;;9.44;73.53;95729.38;5070469;28;20300;-44
2023/01/24 08:11:15;;;;;;;5.07;4.03;;;;;;;9.24;73.66;95702.63;5069204;28;20252;-47
2023/01/24 08:13:42;;;;;;;3.93;3.57;;;;;;;9.44;73.63;95724.28;5070184;28;20182;-46
2023/01/24 08:16:09;;;;;;;4.77;3.80;;;;;;;9.45;73.49;95726.69;5070105;28;20671;-46
2023/01/24 08:18:38;;;;;;;4.33;3.93;;;;;;;9.48;73.35;95731.59;5070488;28;20194;-45
2023/01/24 08:21:05;;;;;;;4.63;4.00;;;;;;;9.32;73.13;95691.91;5070101;28;20194;-46
2023/01/24 08:23:32;;;;;;;4.10;3.70;;;;;;;9.53;73.12;95727.00;5070092;28;20197;-46
2023/01/24 08:25:59;;;;;;;4.33;3.93;;;;;;;9.58;72.71;95731.78;5069853;28;20232;-46
2023/01/24 08:28:26;;;;;;;4.17;3.70;;;;;;;9.63;72.82;95734.03;5069922;28;20187;-47
2023/01/24 08:30:53;;;;;;;4.53;4.13;;;;;;;9.66;72.63;95731.25;5068921;28;20257;-46
2023/01/24 08:33:20;;;;;;;3.77;3.47;;;;;;;9.72;72.56;95741.88;5068580;28;20187;-46
2023/01/24 08:35:49;;;;;;;6.20;4.37;;;;;;;9.66;72.17;95721.84;5069777;28;20659;-45
2023/01/24 08:38:16;;;;;;;4.20;3.70;;;;;;;9.75;71.96;95744.19;5069766;28;20656;-45
2023/01/24 08:40:43;;;;;;;4.57;4.13;;;;;;;9.73;72.22;95742.69;5073328;28;20648;-47
2023/01/24 08:43:10;;;;;;;4.53;4.00;;;;;;;9.77;71.82;95741.56;5073764;28;20190;-48
2023/01/24 08:45:39;;;;;;;4.03;3.57;;;;;;;9.79;71.90;95747.38;5073989;28;20650;-50
2023/01/24 08:48:06;;;;;;;4.77;3.70;;;;;;;9.77;71.82;95749.22;5070093;28;20199;-46
2023/01/24 08:50:32;;;;;;;5.10;3.57;;;;;;;9.72;71.49;95733.41;5069488;28;20210;-47
2023/01/24 08:53:00;;;;;;;5.03;4.10;;;;;;;9.79;71.39;95745.63;5068909;28;20272;-48
2023/01/24 08:55:27;;;;;;;4.10;3.70;;;;;;;9.87;71.33;95754.50;5069617;28;20190;-47
2023/01/24 08:58:00;;;;;;;3.73;3.27;;;;;;;9.92;71.21;95744.78;5068638;28;20197;-48
2023/01/24 09:00:27;;;;;;;4.33;3.70;;;;;;;9.97;70.93;95750.38;5069628;28;20287;-50
2023/01/24 09:02:53;;;;;;;4.43;3.90;;;;;;;10.00;71.11;95743.31;5069506;28;20194;-48
2023/01/24 09:05:20;;;;;;;4.73;3.73;;;;;;;10.00;70.98;95740.75;5069149;28;20190;-46
2023/01/24 09:07:47;;;;;;;4.17;3.77;;;;;;;10.04;70.95;95744.72;5068905;28;20209;-46
2023/01/24 09:10:16;;;;;;;7.63;3.80;;;;;;;10.08;70.78;95737.66;5068987;28;20213;-48
2023/01/24 09:12:42;;;;;;;4.40;4.00;;;;;;;10.13;70.63;95732.22;5069420;28;20190;-45
2023/01/24 09:15:10;;;;;;;5.47;3.90;;;;;;;10.15;70.31;95741.44;5069279;28;20190;-45
2023/01/24 09:17:39;;;;;;;7.40;3.70;;;;;;;10.20;70.41;95751.31;5069388;28;20194;-45
2023/01/24 09:20:07;;;;;;;6.23;4.50;;;;;;;10.00;70.24;95711.84;5068972;28;20248;-51
2023/01/24 09:22:34;;;;;;;4.30;3.67;;;;;;;10.22;70.19;95745.16;5069268;28;20190;-46
2023/01/24 09:25:01;;;;;;;5.37;3.80;;;;;;;10.24;70.51;95745.91;5069059;28;20688;-47
2023/01/24 09:27:29;;;;;;;5.23;3.83;;;;;;;10.27;70.13;95744.84;5068984;28;20233;-46
2023/01/24 09:29:56;;;;;;;4.37;3.77;;;;;;;10.27;69.81;95748.22;5068571;28;20210;-46
2023/01/24 09:32:22;;;;;;;4.80;3.80;;;;;;;10.20;69.87;95736.78;5068881;28;20197;-45
2023/01/24 09:34:49;;;;;;;3.10;2.90;;;;;;;10.28;69.83;95726.88;5068932;28;20194;-48
2023/01/24 09:37:17;;;;;;;4.07;3.60;;;;;;;10.39;69.74;95738.88;5069501;28;20193;-46
2023/01/24 09:39:44;;;;;;;5.03;3.43;;;;;;;10.45;69.69;95735.06;5069154;28;20193;-47
2023/01/24 09:42:18;;;;;;;3.50;3.13;;;;;;;10.49;69.41;95723.66;5069381;28;20186;-46
2023/01/24 09:44:53;;;;;;;3.40;3.10;;;;;;;10.40;69.12;95714.91;5068776;28;20201;-48
2023/01/24 09:47:24;;;;;;;3.60;3.30;;;;;;;10.62;68.99;95732.09;5048963;28;20190;-46
2023/01/24 09:49:56;;;;;;;3.83;3.20;;;;;;;10.68;68.62;95729.09;5060197;28;20627;-45
2023/01/24 09:52:30;;;;;;;3.37;3.07;;;;;;;10.77;68.48;95736.06;5068732;28;20265;-46
2023/01/24 09:55:04;;;;;;;3.27;2.97;;;;;;;10.78;68.56;95730.03;5069119;28;20197;-48
2023/01/24 09:57:38;;;;;;;4.60;3.60;;;;;;;10.85;68.08;95732.97;5069341;28;20602;-47
2023/01/24 10:00:17;;;;;;;3.53;3.23;;;;;;;10.90;68.20;95725.75;5068499;28;20224;-45
2023/01/24 10:02:44;;;;;;;3.87;3.30;;;;;;;10.96;68.24;95722.72;5068743;28;20715;-48
2023/01/24 10:05:15;;;;;;;3.83;3.40;;;;;;;11.03;67.72;95725.66;5065455;28;20206;-48
2023/01/24 10:07:56;;;;;;;3.70;3.00;;;;;;;11.09;67.97;95726.94;5070916;28;20575;-46
2023/01/24 10:10:41;;;;;;;3.57;2.87;;;;;;;11.12;67.71;95726.72;5068753;28;20221;-46
2023/01/24 10:13:24;;;;;;;3.97;3.00;;;;;;;11.12;67.66;95724.97;5068800;28;20222;-46
2023/01/24 10:16:02;;;;;;;3.40;3.10;;;;;;;11.10;67.60;95716.59;5067746;28;20190;-46
2023/01/24 10:18:46;;;;;;;3.33;3.03;;;;;;;11.08;67.43;95700.53;5063663;28;20200;-46
2023/01/24 10:21:50;;;;;;;3.13;2.83;;;;;;;11.17;67.60;95707.50;5048405;28;20563;-46
2023/01/24 10:24:21;;;;;;;3.23;2.93;;;;;;;11.20;67.49;95707.28;5003968;28;20207;-46
2023/01/24 10:26:50;;;;;;;3.93;3.30;;;;;;;11.21;67.23;95706.34;5003594;28;20302;-47
2023/01/24 10:29:20;;;;;;;3.90;2.87;;;;;;;11.29;67.16;95714.25;5003808;28;20193;-48
2023/01/24 10:31:55;;;;;;;4.47;3.30;;;;;;;11.34;67.23;95716.47;5003795;28;20678;-47
2023/01/24 10:34:30;;;;;;;3.33;3.00;;;;;;;11.38;66.97;95710.16;5003949;28;20550;-47
2023/01/24 10:36:59;;;;;;;3.60;2.90;;;;;;;11.45;66.72;95708.78;5003433;28;20220;-47
2023/01/24 10:39:27;;;;;;;3.07;2.77;;;;;;;11.48;66.66;95700.03;5003649;28;20204;-48
2023/01/24 10:41:54;;;;;;;3.30;3.00;;;;;;;11.53;66.42;95705.63;5003205;28;20337;-46
2023/01/24 10:44:25;;;;;;;3.90;2.90;;;;;;;11.53;66.31;95703.06;5003615;28;20201;-48
2023/01/24 10:47:18;;;;;;;3.37;2.83;;;;;;;11.46;66.24;95699.34;5003400;28;20200;-47
2023/01/24 10:49:51;;;;;;;3.00;2.60;;;;;;;11.19;66.23;95659.56;5003666;28;20194;-47
2023/01/24 10:52:20;;;;;;;3.37;2.63;;;;;;;11.41;66.12;95680.97;5003096;28;20733;-48
2023/01/24 10:54:51;;;;;;;3.83;2.83;;;;;;;11.46;65.95;95692.47;5003326;28;20196;-49
2023/01/24 10:57:38;;;;;;;3.27;2.83;;;;;;;11.43;65.97;95699.56;5013350;28;20686;-48
2023/01/24 11:00:18;;;;;;;2.83;2.57;;;;;;;11.40;65.99;95698.09;5071258;28;20187;-48
2023/01/24 11:02:49;;;;;;;2.63;2.43;;;;;;;11.39;65.82;95700.75;5071355;28;20194;-47
2023/01/24 11:05:16;;;;;;;3.20;2.60;;;;;;;11.38;65.80;95701.69;5071363;28;20731;-49
2023/01/24 11:07:47;;;;;;;2.90;2.40;;;;;;;11.35;66.06;95691.66;5071805;28;20205;-47
2023/01/24 11:10:21;;;;;;;2.57;2.40;;;;;;;11.32;65.89;95691.91;5071064;28;20222;-48
2023/01/24 11:12:49;;;;;;;3.00;2.70;;;;;;;11.28;65.79;95693.91;5071688;28;20205;-45
2023/01/24 11:15:21;;;;;;;2.60;2.40;;;;;;;11.25;66.01;95691.56;5071423;28;20285;-49
2023/01/24 11:17:54;;;;;;;2.73;2.53;;;;;;;11.21;66.15;95690.97;5071636;28;20224;-48
2023/01/24 11:20:28;;;;;;;3.00;2.70;;;;;;;10.54;65.79;95584.31;5070978;28;20194;-49
2023/01/24 11:23:03;;;;;;;2.50;2.30;;;;;;;11.09;66.13;95679.09;5071163;28;20648;-49
2023/01/24 11:25:30;;;;;;;2.60;2.17;;;;;;;11.05;66.18;95677.69;5071039;28;20205;-47
2023/01/24 11:27:59;;;;;;;3.40;3.10;;;;;;;10.99;66.26;95670.50;5071469;28;20195;-47
2023/01/24 11:30:28;;;;;;;2.57;2.37;;;;;;;10.94;66.08;95678.53;5071031;28;20210;-45
2023/01/24 11:33:08;;;;;;;2.90;2.63;;;;;;;10.89;66.14;95670.38;5071573;28;20198;-46
2023/01/24 11:35:37;;;;;;;3.53;2.67;;;;;;;10.87;66.47;95673.97;5071018;28;20289;-46
2023/01/24 11:38:22;;;;;;;2.87;2.50;;;;;;;10.83;66.56;95664.91;5071069;28;20647;-47
2023/01/24 11:41:00;;;;;;;2.93;2.67;;;;;;;10.67;66.34;95650.72;5071995;28;20691;-46
2023/01/24 11:44:08;;;;;;;3.63;2.93;;;;;;;10.75;66.38;95663.75;5074029;28;20210;-47
2023/01/24 11:46:50;;;;;;;2.90;2.70;;;;;;;10.72;66.51;95663.16;5009432;28;20484;-49
2023/01/24 11:49:48;;;;;;;3.40;2.73;;;;;;;10.71;66.47;95664.91;5008829;28;20199;-48
2023/01/24 11:52:59;;;;;;;2.57;2.37;;;;;;;10.70;66.45;95660.69;5008525;28;20226;-48
2023/01/24 11:55:46;;;;;;;2.67;2.47;;;;;;;10.72;66.50;95663.97;4912324;29;20206;-48
2023/01/24 11:58:34;;;;;;;2.77;2.43;;;;;;;10.74;66.33;95662.09;4912127;29;20200;-47
2023/01/24 12:01:10;;;;;;;2.60;2.40;;;;;;;10.75;66.31;95662.91;4911965;29;20321;-46
2023/01/24 12:04:01;;;;;;;2.60;2.27;;;;;;;10.78;66.29;95660.94;4911737;29;20274;-47
2023/01/24 12:06:38;;;;;;;2.60;2.40;;;;;;;10.80;66.42;95664.22;4911715;29;20191;-47
2023/01/24 12:09:18;;;;;;;4.27;2.33;;;;;;;10.79;66.15;95654.06;4911914;29;20191;-46
2023/01/24 12:11:53;;;;;;;3.83;3.03;;;;;;;10.83;66.15;95663.16;4911169;29;20310;-46
2023/01/24 12:14:55;;;;;;;2.60;2.40;;;;;;;10.80;66.05;95660.84;4911334;29;20209;-47
2023/01/24 12:17:36;;;;;;;2.53;2.33;;;;;;;10.81;66.17;95659.91;4837025;29;20190;-47
2023/01/24 12:20:24;;;;;;;2.77;2.57;;;;;;;10.83;65.92;95675.13;4837953;29;20206;-45
2023/01/24 12:22:54;;;;;;;3.23;2.30;;;;;;;10.64;65.92;95639.88;4850320;29;20196;-46
2023/01/24 12:25:26;;;;;;;2.70;2.20;;;;;;;10.78;66.00;95665.25;4888150;29;20188;-45
2023/01/24 12:27:57;;;;;;;2.53;2.33;;;;;;;10.73;65.99;95659.66;4892838;29;20260;-48
2023/01/24 12:30:32;;;;;;;4.10;2.37;;;;;;;10.67;65.93;95655.00;4954712;28;20193;-48
2023/01/24 12:33:06;;;;;;;3.13;2.60;;;;;;;10.55;65.99;95641.38;5000169;28;20187;-47